Time;durP1;ratioP1;P1;durP2;ratioP2;P2;SDS_P1;SDS_P2;PMS_P1;PMS_P2;Temp;Humidity;BMP_temperature;BMP_pressure;BME280_temperature;BME280_humidity;BME280_pressure;Samples;Min_cycle;Max_cycle;Signal;HPM_P1;HPM_P2
2023/06/20 00:00:52;;;;;;;3.92;2.85;;;27.00;48.80;;;;;;2476512;55;20969;-70
2023/06/20 00:03:21;;;;;;;4.45;3.22;;;27.00;48.20;;;;;;2476280;55;21185;-70
2023/06/20 00:05:48;;;;;;;4.68;3.50;;;27.00;48.30;;;;;;2463278;55;21016;-69
2023/06/20 00:08:14;;;;;;;4.78;3.53;;;27.00;48.60;;;;;;2475375;55;21524;-70
2023/06/20 00:10:41;;;;;;;6.53;3.90;;;27.00;48.60;;;;;;2476964;55;20969;-71
2023/06/20 00:13:08;;;;;;;3.78;2.70;;;26.90;48.70;;;;;;2471191;55;21150;-71
2023/06/20 00:15:41;;;;;;;4.37;3.28;;;26.90;48.60;;;;;;2245638;56;20997;-71
2023/06/20 00:18:08;;;;;;;5.35;3.35;;;26.90;48.80;;;;;;2251910;56;20965;-70
2023/06/20 00:20:36;;;;;;;3.90;2.67;;;26.90;48.80;;;;;;2252474;56;21040;-70
2023/06/20 00:23:03;;;;;;;5.00;3.58;;;26.90;48.70;;;;;;2461091;55;21018;-70
2023/06/20 00:25:30;;;;;;;4.80;3.30;;;26.90;49.00;;;;;;2238519;56;21079;-70
2023/06/20 00:27:56;;;;;;;4.32;3.10;;;26.80;48.80;;;;;;2476108;55;20968;-70
2023/06/20 00:30:26;;;;;;;4.72;3.30;;;26.80;48.90;;;;;;2475855;55;21414;-70
2023/06/20 00:32:52;;;;;;;4.20;3.25;;;26.80;49.00;;;;;;2251200;56;20988;-70
2023/06/20 00:35:21;;;;;;;4.97;3.35;;;26.80;48.90;;;;;;2457135;55;20903;-72
2023/06/20 00:37:47;;;;;;;4.47;3.35;;;26.80;49.00;;;;;;2452768;55;20936;-70
2023/06/20 00:40:14;;;;;;;4.00;3.12;;;26.70;48.90;;;;;;2476921;55;21028;-70
2023/06/20 00:42:40;;;;;;;3.87;2.75;;;26.70;48.90;;;;;;2251413;56;21882;-71
2023/06/20 00:45:30;;;;;;;4.82;3.12;;;26.70;49.00;;;;;;2466147;55;21100;-70
2023/06/20 00:48:01;;;;;;;5.03;3.35;;;26.70;49.30;;;;;;2242616;56;20984;-71
2023/06/20 00:50:30;;;;;;;4.93;3.27;;;26.60;49.20;;;;;;2251998;56;21001;-70
2023/06/20 00:53:05;;;;;;;3.83;2.62;;;26.60;49.10;;;;;;2463754;55;21896;-71
2023/06/20 00:55:33;;;;;;;4.97;3.35;;;26.60;49.20;;;;;;2251229;56;21004;-70
2023/06/20 00:58:01;;;;;;;4.37;3.25;;;26.60;49.10;;;;;;2462907;55;21117;-69
2023/06/20 01:00:32;;;;;;;4.15;2.90;;;26.50;49.10;;;;;;2477676;55;21036;-70
2023/06/20 01:03:03;;;;;;;4.70;3.15;;;26.50;49.10;;;;;;2241368;56;21832;-71
2023/06/20 01:05:30;;;;;;;5.43;3.10;;;26.50;49.20;;;;;;2253460;56;21002;-70
2023/06/20 01:09:05;;;;;;;3.97;2.80;;;26.40;49.00;;;;;;2469637;55;21003;-71
2023/06/20 01:13:19;;;;;;;4.45;3.00;;;26.40;49.50;;;;;;2477077;55;20973;-70
2023/06/20 01:16:42;;;;;;;3.87;2.62;;;26.40;49.40;;;;;;2475323;55;20997;-71
2023/06/20 01:26:15;;;;;;;3.95;2.80;;;26.40;49.30;;;;;;2473127;55;21682;-71
2023/06/20 01:28:59;;;;;;;3.05;1.77;;;26.40;49.60;;;;;;2476721;55;21513;-70
2023/06/20 01:31:32;;;;;;;3.42;2.28;;;26.30;48.90;;;;;;2254947;56;20961;-71
2023/06/20 01:34:02;;;;;;;3.87;2.62;;;26.30;49.00;;;;;;2252417;56;21501;-70
2023/06/20 01:36:41;;;;;;;3.67;2.42;;;26.30;49.10;;;;;;2247732;56;21045;-70
2023/06/20 01:39:10;;;;;;;4.30;2.92;;;26.10;49.30;;;;;;2245041;56;21058;-70
2023/06/20 01:41:37;;;;;;;4.15;3.00;;;26.20;49.40;;;;;;2247070;56;20980;-70
2023/06/20 01:44:05;;;;;;;4.22;2.67;;;26.20;49.50;;;;;;2247696;55;20991;-70
2023/06/20 01:46:32;;;;;;;4.22;3.10;;;26.20;49.50;;;;;;2457965;55;21539;-71
2023/06/20 01:48:59;;;;;;;4.20;2.90;;;26.10;49.40;;;;;;2467428;55;20979;-71
2023/06/20 01:51:27;;;;;;;4.15;2.70;;;26.10;49.40;;;;;;2247631;56;21316;-71
2023/06/20 01:53:59;;;;;;;5.10;3.28;;;26.10;50.10;;;;;;2241730;56;21004;-70
2023/06/20 01:56:27;;;;;;;4.43;2.97;;;26.10;49.50;;;;;;2254339;56;21008;-69
2023/06/20 01:58:57;;;;;;;4.22;3.15;;;26.10;49.60;;;;;;2466946;55;21356;-70
2023/06/20 02:01:23;;;;;;;3.83;2.83;;;26.10;49.90;;;;;;2250569;56;20965;-69
2023/06/20 02:03:50;;;;;;;3.78;2.87;;;26.10;49.50;;;;;;2475586;55;20929;-70
2023/06/20 02:06:18;;;;;;;4.15;3.03;;;26.10;49.50;;;;;;2252752;56;21105;-70
2023/06/20 02:08:44;;;;;;;5.05;3.05;;;26.10;49.50;;;;;;2243629;56;21003;-70
2023/06/20 02:11:11;;;;;;;4.12;2.97;;;26.00;49.50;;;;;;2460639;55;21444;-70
2023/06/20 02:13:39;;;;;;;4.20;2.80;;;26.00;49.50;;;;;;2476131;55;21068;-71
2023/06/20 02:16:07;;;;;;;4.55;2.83;;;26.00;49.60;;;;;;2253762;56;20989;-70
2023/06/20 02:18:33;;;;;;;3.85;2.78;;;26.00;49.60;;;;;;2476578;55;21473;-70
2023/06/20 02:21:14;;;;;;;3.87;2.70;;;26.00;49.60;;;;;;2473529;55;21042;-71
2023/06/20 02:23:41;;;;;;;3.65;2.55;;;25.90;49.60;;;;;;2467002;55;20971;-71
2023/06/20 02:26:14;;;;;;;3.20;2.15;;;25.90;49.50;;;;;;2252884;56;20929;-71
2023/06/20 02:28:45;;;;;;;4.50;2.25;;;25.90;49.60;;;;;;2464062;55;21020;-70
2023/06/20 02:31:16;;;;;;;;;;;25.90;49.50;;;;;;2479167;55;20977;-70
2023/06/20 02:33:43;;;;;;;3.50;2.40;;;25.90;49.50;;;;;;2242667;56;20079;-70
2023/06/20 02:36:15;;;;;;;4.35;2.87;;;25.90;49.30;;;;;;2442874;56;21496;-71
2023/06/20 02:38:44;;;;;;;;;;;25.90;49.50;;;;;;2466144;55;20996;-71
2023/06/20 02:41:11;;;;;;;3.67;2.33;;;25.90;49.50;;;;;;2447276;55;20332;-70
2023/06/20 02:43:38;;;;;;;4.57;3.15;;;25.90;49.20;;;;;;2458459;55;21449;-71
2023/06/20 02:46:14;;;;;;;4.65;2.92;;;25.80;49.50;;;;;;2247359;56;21003;-70
2023/06/20 02:50:11;;;;;;;4.00;2.67;;;25.90;49.80;;;;;;2239789;56;21777;-70
2023/06/20 02:52:52;;;;;;;3.50;2.28;;;25.80;49.80;;;;;;2252038;56;20964;-70
2023/06/20 02:57:11;;;;;;;;;;;25.80;49.70;;;;;;2479736;55;21797;-70
2023/06/20 02:59:38;;;;;;;2.80;1.65;;;25.80;49.60;;;;;;2253039;56;20074;-71
2023/06/20 03:02:06;;;;;;;4.10;2.35;;;25.80;49.20;;;;;;2473494;55;20998;-71
2023/06/20 03:04:34;;;;;;;3.45;2.22;;;25.70;49.60;;;;;;2466569;55;21024;-70
2023/06/20 03:07:01;;;;;;;3.67;2.22;;;25.70;49.50;;;;;;2476689;55;20949;-70
2023/06/20 03:09:31;;;;;;;3.70;2.50;;;25.70;49.60;;;;;;2473759;55;21014;-71
2023/06/20 03:11:57;;;;;;;3.75;2.53;;;25.70;49.80;;;;;;2466604;55;20945;-70
2023/06/20 03:14:24;;;;;;;3.70;2.42;;;25.60;49.80;;;;;;2246279;56;21849;-70
2023/06/20 03:16:50;;;;;;;3.95;2.35;;;25.60;49.80;;;;;;2468692;55;21912;-70
2023/06/20 03:19:17;;;;;;;3.45;2.15;;;25.60;49.90;;;;;;2251729;56;21449;-70
2023/06/20 03:21:43;;;;;;;3.83;2.22;;;25.60;50.00;;;;;;2242821;56;21047;-71
2023/06/20 03:24:11;;;;;;;3.60;1.95;;;25.60;49.90;;;;;;2466304;55;20991;-71
2023/06/20 03:26:38;;;;;;;4.22;2.55;;;25.60;50.00;;;;;;2470590;55;21516;-71
2023/06/20 03:29:04;;;;;;;3.80;2.20;;;25.50;50.00;;;;;;2254272;56;20959;-71
2023/06/20 03:31:31;;;;;;;3.87;2.50;;;25.50;50.10;;;;;;2250693;56;21586;-70
2023/06/20 03:33:57;;;;;;;3.87;2.15;;;25.50;50.10;;;;;;2458238;55;21019;-69
2023/06/20 03:36:26;;;;;;;5.25;2.62;;;25.50;50.10;;;;;;2455888;55;21043;-70
2023/06/20 03:38:53;;;;;;;3.70;2.62;;;25.50;50.20;;;;;;2468276;55;21900;-70
2023/06/20 03:41:20;;;;;;;4.32;2.55;;;25.50;50.10;;;;;;2437187;55;20990;-70
2023/06/20 03:43:46;;;;;;;4.07;2.25;;;25.50;50.10;;;;;;2450398;55;20990;-69
2023/06/20 03:46:13;;;;;;;3.10;1.87;;;25.40;50.00;;;;;;2244066;56;20993;-70
2023/06/20 03:48:39;;;;;;;3.45;2.12;;;25.50;50.10;;;;;;2470788;55;20974;-71
2023/06/20 03:51:06;;;;;;;3.58;2.28;;;25.40;50.00;;;;;;2462363;55;21015;-70
2023/06/20 03:53:36;;;;;;;3.12;2.05;;;25.40;50.00;;;;;;2434875;55;21563;-72
2023/06/20 03:56:03;;;;;;;5.10;2.50;;;25.40;50.00;;;;;;2470906;55;21021;-70
2023/06/20 03:58:29;;;;;;;3.90;2.53;;;25.30;50.10;;;;;;2246156;56;20968;-70
2023/06/20 04:00:56;;;;;;;3.50;2.37;;;25.30;50.30;;;;;;2467479;55;21066;-70
2023/06/20 04:03:25;;;;;;;4.07;2.90;;;25.30;50.40;;;;;;2250861;56;21024;-70
2023/06/20 04:05:55;;;;;;;3.75;2.17;;;25.20;50.50;;;;;;2474671;55;20933;-70
2023/06/20 04:08:21;;;;;;;4.15;2.55;;;25.20;50.50;;;;;;2462531;55;20975;-71
2023/06/20 04:10:52;;;;;;;3.33;2.25;;;25.20;50.50;;;;;;2472925;55;21016;-70
2023/06/20 04:13:22;;;;;;;3.62;2.40;;;25.20;50.70;;;;;;2474541;55;22148;-70
2023/06/20 04:15:48;;;;;;;4.00;2.50;;;25.10;50.60;;;;;;2472176;55;21510;-71
2023/06/20 04:18:15;;;;;;;4.07;2.20;;;25.10;50.60;;;;;;2472282;55;20929;-69
2023/06/20 04:20:42;;;;;;;3.35;2.28;;;25.10;50.60;;;;;;2462728;55;21881;-71
2023/06/20 04:23:08;;;;;;;4.50;2.20;;;25.10;50.60;;;;;;2469075;55;21037;-70
2023/06/20 04:25:35;;;;;;;3.33;2.30;;;25.10;50.60;;;;;;2472554;55;21319;-71
2023/06/20 04:28:01;;;;;;;3.95;2.50;;;25.00;50.60;;;;;;2458456;55;20988;-71
2023/06/20 04:30:28;;;;;;;4.57;2.50;;;25.00;50.70;;;;;;2239833;56;21042;-71
2023/06/20 04:32:55;;;;;;;3.60;2.30;;;25.00;50.70;;;;;;2245689;56;20985;-70
2023/06/20 04:35:21;;;;;;;4.87;2.42;;;25.00;50.70;;;;;;2462188;55;21045;-70
2023/06/20 04:37:54;;;;;;;3.80;2.42;;;25.00;50.90;;;;;;2243671;56;20985;-71
2023/06/20 04:40:20;;;;;;;3.62;2.50;;;24.90;50.90;;;;;;2472026;55;21045;-70
2023/06/20 04:42:47;;;;;;;3.80;2.30;;;24.90;51.10;;;;;;2235247;55;21040;-70
2023/06/20 04:45:13;;;;;;;3.58;2.40;;;24.90;51.10;;;;;;2461271;55;21039;-70
2023/06/20 04:47:42;;;;;;;3.08;1.85;;;24.90;51.10;;;;;;2471965;55;20965;-70
2023/06/20 04:50:12;;;;;;;3.30;2.00;;;24.80;51.00;;;;;;2461140;55;21004;-70
2023/06/20 04:52:38;;;;;;;3.47;2.37;;;24.80;51.00;;;;;;2250346;56;21032;-70
2023/06/20 04:55:05;;;;;;;3.10;1.90;;;24.80;51.10;;;;;;2474336;55;21108;-71
2023/06/20 04:57:33;;;;;;;3.67;2.30;;;24.80;51.10;;;;;;2475802;55;21044;-70
2023/06/20 05:00:07;;;;;;;4.45;3.03;;;24.80;51.10;;;;;;2251978;56;20973;-69
2023/06/20 05:02:36;;;;;;;4.10;2.70;;;24.80;51.20;;;;;;2251257;56;21581;-70
2023/06/20 05:05:04;;;;;;;4.07;2.67;;;24.80;51.60;;;;;;2459251;55;21473;-70
2023/06/20 05:07:33;;;;;;;4.05;2.33;;;24.80;51.30;;;;;;2236662;56;20968;-70
2023/06/20 05:09:59;;;;;;;4.62;2.40;;;24.80;51.40;;;;;;2472630;55;21470;-70
2023/06/20 05:12:26;;;;;;;3.40;2.35;;;24.80;51.40;;;;;;2466823;55;20988;-69
2023/06/20 05:14:52;;;;;;;3.78;2.20;;;24.80;51.40;;;;;;2239006;56;20936;-71
2023/06/20 05:17:20;;;;;;;3.17;2.03;;;24.80;51.50;;;;;;2450544;55;20998;-70
2023/06/20 05:19:47;;;;;;;3.37;2.20;;;24.80;51.50;;;;;;2447939;55;21582;-69
2023/06/20 05:22:13;;;;;;;3.78;2.60;;;24.70;51.40;;;;;;2461870;55;21019;-69
2023/06/20 05:24:41;;;;;;;3.10;2.20;;;24.80;51.60;;;;;;2462411;55;21020;-69
2023/06/20 05:27:07;;;;;;;3.92;2.08;;;24.80;51.60;;;;;;2246223;56;20984;-70
2023/06/20 05:29:34;;;;;;;3.67;2.40;;;24.80;51.60;;;;;;2472547;55;20929;-70
2023/06/20 05:32:04;;;;;;;3.60;2.20;;;24.80;51.60;;;;;;2470395;55;21008;-70
2023/06/20 05:34:32;;;;;;;3.67;2.22;;;24.90;51.90;;;;;;2470121;55;20968;-69
2023/06/20 05:36:59;;;;;;;4.07;2.60;;;24.80;51.70;;;;;;2453148;56;21479;-71
2023/06/20 05:39:25;;;;;;;3.47;2.30;;;24.90;51.80;;;;;;2467592;55;21086;-70
2023/06/20 05:41:56;;;;;;;4.07;2.30;;;24.90;51.80;;;;;;2454161;55;20979;-71
2023/06/20 05:44:23;;;;;;;4.43;3.00;;;24.90;51.90;;;;;;2245673;56;21519;-69
2023/06/20 05:46:49;;;;;;;4.03;2.80;;;25.00;52.00;;;;;;2455023;55;20973;-70
2023/06/20 05:49:16;;;;;;;5.32;3.50;;;25.00;52.00;;;;;;2248814;56;20965;-70
2023/06/20 05:51:44;;;;;;;4.43;3.05;;;25.00;52.00;;;;;;2249762;55;20984;-70
2023/06/20 05:54:10;;;;;;;4.12;2.90;;;25.00;52.10;;;;;;2454852;55;20979;-71
2023/06/20 05:56:38;;;;;;;3.87;2.75;;;25.10;52.20;;;;;;2468813;55;21519;-69
2023/06/20 05:59:07;;;;;;;4.32;3.10;;;25.10;52.30;;;;;;2467262;55;21477;-70
2023/06/20 06:01:35;;;;;;;4.20;2.70;;;25.10;52.40;;;;;;2469489;55;21032;-70
2023/06/20 06:04:02;;;;;;;4.85;2.80;;;25.20;52.40;;;;;;2244189;56;20972;-71
2023/06/20 06:06:28;;;;;;;4.18;2.90;;;25.20;52.40;;;;;;2466745;55;21004;-73
2023/06/20 06:08:58;;;;;;;4.22;2.87;;;25.20;52.40;;;;;;2240989;56;21139;-71
2023/06/20 06:11:27;;;;;;;5.65;2.80;;;25.30;52.50;;;;;;2233481;56;21009;-71
2023/06/20 06:13:53;;;;;;;4.00;2.90;;;25.30;52.50;;;;;;2242608;56;22200;-71
2023/06/20 06:16:23;;;;;;;4.00;3.00;;;25.40;52.60;;;;;;2242977;56;20972;-72
2023/06/20 06:18:50;;;;;;;4.85;3.40;;;25.40;52.70;;;;;;2454699;55;20995;-71
2023/06/20 06:21:21;;;;;;;4.28;2.95;;;25.50;52.80;;;;;;2232437;56;21744;-70
2023/06/20 06:23:48;;;;;;;4.30;2.95;;;25.50;53.00;;;;;;2230871;56;21572;-70
2023/06/20 06:26:14;;;;;;;4.22;3.00;;;25.60;53.10;;;;;;2454073;55;20938;-72
2023/06/20 06:28:41;;;;;;;5.37;3.62;;;25.70;53.20;;;;;;2235663;56;20969;-71
2023/06/20 06:31:13;;;;;;;5.50;3.42;;;25.70;53.10;;;;;;2461095;55;21453;-72
2023/06/20 06:33:43;;;;;;;5.37;3.67;;;25.80;53.20;;;;;;2233508;57;20982;-72
2023/06/20 06:36:09;;;;;;;4.15;3.03;;;25.80;53.10;;;;;;2464922;55;21093;-71
2023/06/20 06:38:37;;;;;;;4.55;3.17;;;25.90;53.10;;;;;;2452612;55;21003;-73
2023/06/20 06:41:03;;;;;;;4.70;2.92;;;25.90;53.10;;;;;;2245594;56;21044;-72
2023/06/20 06:43:29;;;;;;;4.65;3.33;;;26.00;53.10;;;;;;2453189;55;21075;-71
2023/06/20 06:45:59;;;;;;;4.12;3.22;;;26.10;53.10;;;;;;2466365;55;21029;-72
2023/06/20 06:48:26;;;;;;;4.80;3.30;;;26.10;53.00;;;;;;2457416;55;21539;-74
2023/06/20 06:50:53;;;;;;;4.18;2.75;;;26.20;53.00;;;;;;2243970;56;21030;-71
2023/06/20 06:53:19;;;;;;;4.85;2.87;;;26.30;53.10;;;;;;2464055;55;20965;-71
2023/06/20 06:55:46;;;;;;;6.18;3.20;;;26.40;53.20;;;;;;2251265;56;20960;-72
2023/06/20 06:58:12;;;;;;;5.05;3.15;;;26.40;53.10;;;;;;2459852;55;21449;-72
2023/06/20 07:00:39;;;;;;;4.22;3.10;;;26.50;53.10;;;;;;2247514;56;21050;-73
2023/06/20 07:03:08;;;;;;;5.00;3.08;;;26.60;53.00;;;;;;2431983;55;21101;-72
2023/06/20 07:05:35;;;;;;;4.18;3.05;;;26.70;53.10;;;;;;2245827;56;20999;-72
2023/06/20 07:08:02;;;;;;;5.18;3.15;;;26.80;53.10;;;;;;2460262;55;20960;-71
2023/06/20 07:10:29;;;;;;;4.22;3.20;;;26.90;53.10;;;;;;2245444;56;20978;-72
2023/06/20 07:12:55;;;;;;;4.70;3.47;;;27.00;53.10;;;;;;2238589;56;20988;-72
2023/06/20 07:15:22;;;;;;;5.28;3.20;;;27.10;53.10;;;;;;2468362;55;20996;-71
2023/06/20 07:17:48;;;;;;;4.47;3.25;;;27.10;52.90;;;;;;2243005;56;20989;-72
2023/06/20 07:20:17;;;;;;;3.83;2.95;;;27.20;52.90;;;;;;2238808;56;21071;-72
2023/06/20 07:22:45;;;;;;;4.22;2.80;;;27.30;52.80;;;;;;2464201;55;21104;-71
2023/06/20 07:25:12;;;;;;;4.32;3.22;;;27.40;52.80;;;;;;2458397;55;21555;-71
2023/06/20 07:27:38;;;;;;;4.20;3.40;;;27.50;52.70;;;;;;2237445;56;21528;-73
2023/06/20 07:30:05;;;;;;;4.93;3.72;;;27.60;52.80;;;;;;2236327;56;21083;-73
2023/06/20 07:32:33;;;;;;;5.00;3.80;;;27.60;52.90;;;;;;2247721;56;21353;-74
2023/06/20 07:35:00;;;;;;;4.85;3.42;;;27.70;52.80;;;;;;2471716;55;21023;-72
2023/06/20 07:37:28;;;;;;;4.70;3.22;;;27.80;52.70;;;;;;2246070;56;21036;-72
2023/06/20 07:40:00;;;;;;;4.97;3.60;;;27.90;52.70;;;;;;2458733;55;21106;-72
2023/06/20 07:42:27;;;;;;;5.62;3.92;;;28.00;52.80;;;;;;2464189;55;21369;-71
2023/06/20 07:44:58;;;;;;;4.70;3.12;;;28.00;52.70;;;;;;2245972;56;21822;-72
2023/06/20 07:47:25;;;;;;;6.53;3.15;;;28.10;52.50;;;;;;2465727;55;21394;-71
2023/06/20 07:49:51;;;;;;;4.10;2.97;;;28.10;52.10;;;;;;2234439;56;21739;-71
2023/06/20 07:52:17;;;;;;;5.18;3.90;;;28.20;52.10;;;;;;2236660;56;21030;-71
2023/06/20 07:54:44;;;;;;;5.37;3.37;;;28.30;52.10;;;;;;2443326;55;20945;-72
2023/06/20 07:57:10;;;;;;;4.53;2.70;;;28.40;52.10;;;;;;2217863;55;21074;-72
2023/06/20 07:59:37;;;;;;;4.50;3.42;;;28.40;51.90;;;;;;2241040;55;20961;-71
2023/06/20 08:02:04;;;;;;;5.07;3.37;;;28.50;52.00;;;;;;2235163;56;20998;-72
2023/06/20 08:04:30;;;;;;;5.22;4.10;;;28.60;51.90;;;;;;2237510;56;21064;-71
2023/06/20 08:06:59;;;;;;;4.28;3.20;;;28.60;51.80;;;;;;2235159;56;22205;-71
2023/06/20 08:09:25;;;;;;;4.40;3.42;;;28.70;51.70;;;;;;2459125;55;20991;-72
2023/06/20 08:11:52;;;;;;;4.72;3.62;;;28.80;51.70;;;;;;2453329;55;21908;-72
2023/06/20 08:14:18;;;;;;;5.78;3.45;;;28.80;51.40;;;;;;2464344;55;21004;-73
2023/06/20 08:16:45;;;;;;;4.43;3.40;;;28.90;51.20;;;;;;2466125;55;21024;-72
2023/06/20 08:19:11;;;;;;;4.78;3.22;;;29.00;51.00;;;;;;2467614;55;20945;-72
2023/06/20 08:21:38;;;;;;;4.40;3.20;;;29.10;51.00;;;;;;2228166;55;21015;-73
2023/06/20 08:24:05;;;;;;;4.85;2.90;;;29.10;50.80;;;;;;2242541;56;21005;-72
2023/06/20 08:26:34;;;;;;;4.55;3.30;;;29.20;50.70;;;;;;2242102;56;21237;-72
2023/06/20 08:29:02;;;;;;;5.30;3.67;;;29.30;50.30;;;;;;2426671;55;20951;-71
2023/06/20 08:31:36;;;;;;;7.85;3.65;;;29.40;50.40;;;;;;2217416;57;20974;-71
2023/06/20 08:34:05;;;;;;;6.00;3.33;;;29.40;50.30;;;;;;2443011;55;20986;-72
2023/06/20 08:36:32;;;;;;;4.25;3.00;;;29.50;50.30;;;;;;2456902;55;21029;-72
2023/06/20 08:38:59;;;;;;;4.30;3.00;;;29.60;50.10;;;;;;2241846;56;21058;-72
2023/06/20 08:41:25;;;;;;;3.83;2.70;;;29.70;50.00;;;;;;2438771;55;21493;-74
2023/06/20 08:43:52;;;;;;;3.75;2.67;;;29.70;49.60;;;;;;2455751;55;21058;-72
2023/06/20 08:46:24;;;;;;;5.35;2.62;;;29.80;49.50;;;;;;2474028;55;21020;-75
2023/06/20 08:48:51;;;;;;;4.60;2.78;;;29.70;49.20;;;;;;2449315;55;21102;-73
2023/06/20 08:51:20;;;;;;;4.03;2.83;;;29.90;49.20;;;;;;2226972;57;21045;-73
2023/06/20 08:53:47;;;;;;;5.30;2.97;;;30.00;48.90;;;;;;2456734;55;21141;-72
2023/06/20 08:56:14;;;;;;;4.30;2.80;;;30.00;48.60;;;;;;2247888;56;21485;-73
2023/06/20 08:58:41;;;;;;;3.75;2.90;;;30.10;48.10;;;;;;2458149;55;21452;-71
2023/06/20 09:01:08;;;;;;;4.07;2.92;;;30.20;48.10;;;;;;2461180;55;21052;-71
2023/06/20 09:03:35;;;;;;;4.80;2.85;;;30.20;47.70;;;;;;2241766;56;21043;-73
2023/06/20 09:06:02;;;;;;;4.50;3.00;;;30.30;47.50;;;;;;2463799;55;20949;-72
2023/06/20 09:08:35;;;;;;;3.53;2.50;;;30.30;47.00;;;;;;2430016;55;21010;-73
2023/06/20 09:11:08;;;;;;;4.72;3.00;;;30.40;46.50;;;;;;2448805;55;21031;-72
2023/06/20 09:13:36;;;;;;;3.92;2.60;;;30.40;46.30;;;;;;2454352;55;21009;-70
2023/06/20 09:16:10;;;;;;;5.62;2.80;;;30.50;46.50;;;;;;2235560;56;21115;-72
2023/06/20 09:18:40;;;;;;;3.30;2.20;;;30.50;46.20;;;;;;2229096;56;21006;-73
2023/06/20 09:21:14;;;;;;;3.87;2.60;;;30.60;46.20;;;;;;2449115;55;20982;-73
2023/06/20 09:23:40;;;;;;;4.60;2.85;;;30.60;45.80;;;;;;2460673;55;21000;-74
2023/06/20 09:26:13;;;;;;;3.55;2.33;;;30.70;45.50;;;;;;2462486;55;20973;-75
2023/06/20 09:28:40;;;;;;;4.40;2.47;;;30.70;45.00;;;;;;2446393;55;20960;-72
2023/06/20 09:31:06;;;;;;;5.12;2.58;;;30.70;45.10;;;;;;2232845;56;21526;-72
2023/06/20 09:33:39;;;;;;;3.72;2.62;;;30.80;45.10;;;;;;2459939;55;20957;-72
2023/06/20 09:36:15;;;;;;;3.87;2.30;;;30.80;44.40;;;;;;2459411;55;20973;-72
2023/06/20 09:38:50;;;;;;;3.55;2.53;;;30.90;44.10;;;;;;2459193;55;20984;-75
2023/06/20 09:41:17;;;;;;;4.18;2.58;;;31.00;44.30;;;;;;2450953;55;21092;-73
2023/06/20 09:43:44;;;;;;;4.12;2.60;;;31.00;44.30;;;;;;2245025;56;20932;-73
2023/06/20 09:46:11;;;;;;;6.30;2.65;;;31.00;44.10;;;;;;2235255;56;21034;-73
2023/06/20 09:48:38;;;;;;;4.82;2.53;;;31.10;43.90;;;;;;2239419;56;21450;-72
2023/06/20 09:51:06;;;;;;;3.97;2.33;;;31.10;43.70;;;;;;2245123;56;20984;-72
2023/06/20 09:53:50;;;;;;;3.92;2.40;;;31.10;43.60;;;;;;2465197;55;20981;-71
2023/06/20 09:56:18;;;;;;;4.78;2.70;;;31.20;43.10;;;;;;2467915;55;21778;-71
2023/06/20 09:58:47;;;;;;;4.37;3.00;;;31.30;43.50;;;;;;2235149;56;21070;-72
2023/06/20 10:01:16;;;;;;;4.43;3.08;;;31.30;43.60;;;;;;2464025;55;21012;-72
2023/06/20 10:03:43;;;;;;;3.90;2.65;;;31.30;43.20;;;;;;2466196;55;21545;-73
2023/06/20 10:06:14;;;;;;;5.07;2.67;;;31.40;43.10;;;;;;2230371;56;21525;-72
2023/06/20 10:08:41;;;;;;;5.07;2.58;;;31.50;43.10;;;;;;2449340;55;21791;-72
2023/06/20 10:11:08;;;;;;;5.10;2.47;;;31.60;43.00;;;;;;2238349;56;21493;-71
2023/06/20 10:13:39;;;;;;;4.18;2.47;;;31.60;43.00;;;;;;2459714;55;21030;-73
2023/06/20 10:16:06;;;;;;;3.90;2.53;;;31.70;42.90;;;;;;2420778;56;21886;-74
2023/06/20 10:18:40;;;;;;;4.18;2.62;;;31.70;42.90;;;;;;2223592;56;21479;-73
2023/06/20 10:21:08;;;;;;;4.35;2.60;;;31.80;42.50;;;;;;2234320;56;20945;-72
2023/06/20 10:23:36;;;;;;;3.40;2.20;;;31.80;42.60;;;;;;2215088;56;20990;-72
2023/06/20 10:26:08;;;;;;;4.37;2.40;;;31.90;42.70;;;;;;2226682;56;21005;-72
2023/06/20 10:28:38;;;;;;;4.32;2.35;;;31.90;42.70;;;;;;2240456;56;21427;-71
2023/06/20 10:31:04;;;;;;;6.40;2.83;;;32.00;42.40;;;;;;2238158;56;21017;-72
2023/06/20 10:33:31;;;;;;;4.45;3.05;;;32.00;42.50;;;;;;2208871;56;20977;-72
2023/06/20 10:36:19;;;;;;;4.35;2.62;;;32.10;42.30;;;;;;2435246;55;21074;-71
2023/06/20 10:39:20;;;;;;;3.85;2.40;;;32.20;41.40;;;;;;2449857;55;21108;-73
2023/06/20 10:41:46;;;;;;;4.45;2.45;;;32.30;41.60;;;;;;2463090;55;20969;-74
2023/06/20 10:44:30;;;;;;;3.78;2.83;;;32.30;41.80;;;;;;2242632;56;21005;-73
2023/06/20 10:46:59;;;;;;;;;;;32.30;41.60;;;;;;2460142;55;21939;-74
2023/06/20 10:49:26;;;;;;;4.70;2.72;;;32.40;41.60;;;;;;2244704;56;20078;-72
2023/06/20 10:51:55;;;;;;;5.93;2.45;;;32.50;41.80;;;;;;2207719;57;21960;-72
2023/06/20 10:54:31;;;;;;;4.30;2.50;;;32.50;41.80;;;;;;2242503;56;21819;-71
2023/06/20 10:56:58;;;;;;;3.87;2.45;;;32.50;41.60;;;;;;2449820;55;21021;-71
2023/06/20 10:59:25;;;;;;;3.83;2.53;;;32.50;41.60;;;;;;2241016;56;20980;-72
2023/06/20 11:01:51;;;;;;;4.95;2.72;;;32.60;41.60;;;;;;2226389;55;20984;-74
2023/06/20 11:04:20;;;;;;;4.50;2.33;;;32.60;41.30;;;;;;2236419;56;21609;-71
2023/06/20 11:06:47;;;;;;;5.00;2.75;;;32.60;41.40;;;;;;2450708;55;21043;-74
2023/06/20 11:09:21;;;;;;;3.90;2.70;;;32.70;41.20;;;;;;2231708;56;21834;-72
2023/06/20 11:11:48;;;;;;;3.80;2.42;;;32.70;40.80;;;;;;2453462;55;22238;-70
2023/06/20 11:14:18;;;;;;;4.78;2.90;;;32.70;40.90;;;;;;2235381;56;21127;-72
2023/06/20 11:16:44;;;;;;;4.80;2.83;;;32.80;40.90;;;;;;2237271;56;20964;-71
2023/06/20 11:19:11;;;;;;;4.72;2.50;;;32.90;40.90;;;;;;2237971;56;21895;-74
2023/06/20 11:21:48;;;;;;;3.70;2.37;;;33.00;40.70;;;;;;2237799;57;21814;-72
2023/06/20 11:24:14;;;;;;;5.87;2.42;;;33.00;40.50;;;;;;2236990;56;20977;-72
2023/06/20 11:26:41;;;;;;;4.78;2.60;;;33.10;40.20;;;;;;2230070;56;20969;-71
2023/06/20 11:29:10;;;;;;;4.15;2.28;;;33.10;40.30;;;;;;2455158;55;21506;-72
2023/06/20 11:31:40;;;;;;;3.90;2.10;;;33.20;40.10;;;;;;2455462;55;21012;-72
2023/06/20 11:34:08;;;;;;;4.62;2.47;;;33.20;40.00;;;;;;2440766;55;20991;-72
2023/06/20 11:36:40;;;;;;;3.45;2.00;;;33.30;40.00;;;;;;2446669;55;21590;-72
2023/06/20 11:39:13;;;;;;;5.28;2.28;;;33.30;40.00;;;;;;2422506;55;21797;-72
2023/06/20 11:41:40;;;;;;;4.28;2.42;;;33.40;39.50;;;;;;2212067;55;22533;-71
2023/06/20 11:44:21;;;;;;;3.78;2.60;;;33.50;39.60;;;;;;2432802;55;22080;-72
2023/06/20 11:46:49;;;;;;;5.33;2.63;;;33.60;39.10;;;;;;2225366;56;21549;-72
2023/06/20 11:49:30;;;;;;;3.50;2.37;;;33.60;39.30;;;;;;2212587;56;20976;-72
2023/06/20 11:51:56;;;;;;;4.40;2.50;;;33.60;38.70;;;;;;2219006;56;21035;-71
2023/06/20 11:54:44;;;;;;;4.37;2.20;;;33.60;39.00;;;;;;2214156;56;21019;-70
2023/06/20 11:57:24;;;;;;;3.62;2.08;;;33.70;39.10;;;;;;2422886;55;21030;-73
2023/06/20 11:59:59;;;;;;;4.45;2.20;;;33.80;38.70;;;;;;2215630;56;21101;-74
2023/06/20 12:02:35;;;;;;;4.12;2.60;;;33.80;39.00;;;;;;2210508;56;21038;-71
2023/06/20 12:05:01;;;;;;;3.78;2.42;;;33.80;38.70;;;;;;2197112;56;22405;-75
2023/06/20 12:07:30;;;;;;;3.95;2.25;;;33.90;38.40;;;;;;2392843;56;21924;-72
2023/06/20 12:10:11;;;;;;;4.35;2.60;;;34.00;38.20;;;;;;2213640;56;21486;-73
2023/06/20 12:12:43;;;;;;;6.78;2.33;;;34.00;37.60;;;;;;2423735;55;21016;-72
2023/06/20 12:15:11;;;;;;;5.53;2.55;;;34.10;38.00;;;;;;2209566;56;21116;-72
2023/06/20 12:17:39;;;;;;;3.85;2.10;;;34.10;38.00;;;;;;2205010;56;22017;-72
2023/06/20 12:20:09;;;;;;;6.15;2.62;;;34.10;37.90;;;;;;2427872;55;21026;-74
2023/06/20 12:22:41;;;;;;;3.85;2.42;;;34.10;37.70;;;;;;2419224;55;22881;-73
2023/06/20 12:25:12;;;;;;;4.00;2.30;;;34.20;37.70;;;;;;2406191;55;21034;-73
2023/06/20 12:27:41;;;;;;;5.40;2.40;;;34.30;37.60;;;;;;2189403;56;21760;-72
2023/06/20 12:30:13;;;;;;;4.53;2.00;;;34.30;38.00;;;;;;2202180;56;21027;-71
2023/06/20 12:32:39;;;;;;;5.72;2.45;;;34.40;37.50;;;;;;2193497;56;22061;-71
2023/06/20 12:35:06;;;;;;;3.45;2.17;;;34.40;37.30;;;;;;2206414;56;21050;-73
2023/06/20 12:37:56;;;;;;;4.45;2.28;;;34.40;37.20;;;;;;2439795;55;20987;-74
2023/06/20 12:40:22;;;;;;;4.07;2.25;;;34.50;37.00;;;;;;2184891;56;21610;-74
2023/06/20 12:42:49;;;;;;;5.43;2.53;;;34.60;37.00;;;;;;2441723;55;21701;-70
2023/06/20 12:45:16;;;;;;;4.70;2.10;;;34.70;37.00;;;;;;2403154;56;20947;-71
2023/06/20 12:47:45;;;;;;;3.72;2.08;;;34.70;37.00;;;;;;2442917;55;20980;-71
2023/06/20 12:50:11;;;;;;;3.67;2.15;;;34.80;36.70;;;;;;2428184;56;21052;-74
2023/06/20 12:52:39;;;;;;;5.37;2.47;;;34.80;36.60;;;;;;2444784;55;21432;-70
2023/06/20 12:55:10;;;;;;;3.70;1.87;;;35.00;36.40;;;;;;2225364;56;21547;-72
2023/06/20 12:57:37;;;;;;;4.30;2.15;;;35.00;36.30;;;;;;2432480;55;20991;-71
2023/06/20 13:00:09;;;;;;;3.80;2.17;;;35.10;36.30;;;;;;2438072;55;22055;-70
2023/06/20 13:02:35;;;;;;;4.18;2.33;;;35.10;36.30;;;;;;2433370;55;21345;-73
2023/06/20 13:05:02;;;;;;;3.42;2.10;;;35.10;36.20;;;;;;2388511;55;21009;-75
2023/06/20 13:07:33;;;;;;;4.35;2.25;;;35.20;36.00;;;;;;2403225;55;21583;-72
2023/06/20 13:10:01;;;;;;;4.65;2.17;;;35.30;36.00;;;;;;2414173;55;20973;-72